sensor_id;sensor_type;location;lat;lon;timestamp;temperature;humidity
39931;DHT22;26635;-35.248;149.138;2023-06-26T00:01:40;8.70;92.60
39931;DHT22;26635;-35.248;149.138;2023-06-26T00:04:12;8.90;92.60
39931;DHT22;26635;-35.248;149.138;2023-06-26T00:06:44;9.00;92.30
39931;DHT22;26635;-35.248;149.138;2023-06-26T00:09:15;9.10;92.50
39931;DHT22;26635;-35.248;149.138;2023-06-26T00:11:45;9.10;92.70
39931;DHT22;26635;-35.248;149.138;2023-06-26T00:14:16;9.20;92.70
39931;DHT22;26635;-35.248;149.138;2023-06-26T00:16:50;9.20;92.70
39931;DHT22;26635;-35.248;149.138;2023-06-26T00:19:21;9.30;92.20
39931;DHT22;26635;-35.248;149.138;2023-06-26T00:21:53;9.40;92.10
39931;DHT22;26635;-35.248;149.138;2023-06-26T00:24:24;9.40;91.80
39931;DHT22;26635;-35.248;149.138;2023-06-26T00:26:54;9.50;91.40
39931;DHT22;26635;-35.248;149.138;2023-06-26T00:29:25;9.50;91.20
39931;DHT22;26635;-35.248;149.138;2023-06-26T00:31:56;9.60;90.90
39931;DHT22;26635;-35.248;149.138;2023-06-26T00:34:26;9.60;91.10
39931;DHT22;26635;-35.248;149.138;2023-06-26T00:36:56;9.70;91.20
39931;DHT22;26635;-35.248;149.138;2023-06-26T00:39:27;9.70;91.40
39931;DHT22;26635;-35.248;149.138;2023-06-26T00:41:58;9.80;91.00
39931;DHT22;26635;-35.248;149.138;2023-06-26T00:44:28;9.80;90.70
39931;DHT22;26635;-35.248;149.138;2023-06-26T00:46:59;9.90;90.60
39931;DHT22;26635;-35.248;149.138;2023-06-26T00:49:31;9.90;90.70
39931;DHT22;26635;-35.248;149.138;2023-06-26T00:52:01;10.00;91.10
39931;DHT22;26635;-35.248;149.138;2023-06-26T00:54:33;10.00;90.70
39931;DHT22;26635;-35.248;149.138;2023-06-26T00:57:04;10.10;90.50
39931;DHT22;26635;-35.248;149.138;2023-06-26T00:59:35;10.10;90.40
39931;DHT22;26635;-35.248;149.138;2023-06-26T01:05:21;10.20;90.00
39931;DHT22;26635;-35.248;149.138;2023-06-26T01:07:52;10.20;90.00
39931;DHT22;26635;-35.248;149.138;2023-06-26T01:10:23;10.20;90.10
39931;DHT22;26635;-35.248;149.138;2023-06-26T01:12:54;10.20;90.10
39931;DHT22;26635;-35.248;149.138;2023-06-26T01:15:25;10.20;90.40
39931;DHT22;26635;-35.248;149.138;2023-06-26T01:17:56;10.20;90.60
39931;DHT22;26635;-35.248;149.138;2023-06-26T01:20:35;10.20;90.70
39931;DHT22;26635;-35.248;149.138;2023-06-26T01:28:42;10.20;91.10
39931;DHT22;26635;-35.248;149.138;2023-06-26T01:31:14;10.20;90.70
39931;DHT22;26635;-35.248;149.138;2023-06-26T01:33:46;10.20;90.80
39931;DHT22;26635;-35.248;149.138;2023-06-26T01:36:18;10.30;90.60
39931;DHT22;26635;-35.248;149.138;2023-06-26T01:38:50;10.40;90.80
39931;DHT22;26635;-35.248;149.138;2023-06-26T01:41:20;10.40;90.40
39931;DHT22;26635;-35.248;149.138;2023-06-26T01:49:49;10.60;91.10
39931;DHT22;26635;-35.248;149.138;2023-06-26T01:52:53;10.60;90.60
39931;DHT22;26635;-35.248;149.138;2023-06-26T01:55:52;10.60;89.20
39931;DHT22;26635;-35.248;149.138;2023-06-26T01:58:25;10.50;90.50
39931;DHT22;26635;-35.248;149.138;2023-06-26T02:00:56;10.50;90.70
39931;DHT22;26635;-35.248;149.138;2023-06-26T02:03:27;10.40;90.80
39931;DHT22;26635;-35.248;149.138;2023-06-26T02:06:00;10.40;90.60
39931;DHT22;26635;-35.248;149.138;2023-06-26T02:08:31;10.50;90.40
39931;DHT22;26635;-35.248;149.138;2023-06-26T02:11:07;10.60;90.30
39931;DHT22;26635;-35.248;149.138;2023-06-26T02:13:37;10.50;89.70
39931;DHT22;26635;-35.248;149.138;2023-06-26T02:16:08;10.60;90.20
39931;DHT22;26635;-35.248;149.138;2023-06-26T02:18:38;10.60;90.60
39931;DHT22;26635;-35.248;149.138;2023-06-26T02:21:12;10.70;88.80
39931;DHT22;26635;-35.248;149.138;2023-06-26T02:23:43;10.70;89.10
39931;DHT22;26635;-35.248;149.138;2023-06-26T02:26:13;10.80;88.90
39931;DHT22;26635;-35.248;149.138;2023-06-26T02:28:44;10.80;89.40
39931;DHT22;26635;-35.248;149.138;2023-06-26T02:31:14;10.80;89.60
39931;DHT22;26635;-35.248;149.138;2023-06-26T02:33:45;10.90;89.50
39931;DHT22;26635;-35.248;149.138;2023-06-26T02:36:16;11.00;88.80
39931;DHT22;26635;-35.248;149.138;2023-06-26T02:38:47;11.00;87.90
39931;DHT22;26635;-35.248;149.138;2023-06-26T02:41:19;11.00;88.50
39931;DHT22;26635;-35.248;149.138;2023-06-26T02:43:50;11.00;88.40
39931;DHT22;26635;-35.248;149.138;2023-06-26T02:46:21;11.00;88.70
39931;DHT22;26635;-35.248;149.138;2023-06-26T02:48:51;11.00;87.90
39931;DHT22;26635;-35.248;149.138;2023-06-26T02:51:23;11.00;88.50
39931;DHT22;26635;-35.248;149.138;2023-06-26T02:53:53;11.10;88.20
39931;DHT22;26635;-35.248;149.138;2023-06-26T02:56:24;11.10;86.10
39931;DHT22;26635;-35.248;149.138;2023-06-26T02:58:58;11.00;84.60
39931;DHT22;26635;-35.248;149.138;2023-06-26T03:01:29;11.10;85.20
39931;DHT22;26635;-35.248;149.138;2023-06-26T03:04:00;11.20;85.70
39931;DHT22;26635;-35.248;149.138;2023-06-26T03:06:32;11.20;84.20
39931;DHT22;26635;-35.248;149.138;2023-06-26T03:09:03;11.20;84.00
39931;DHT22;26635;-35.248;149.138;2023-06-26T03:11:33;11.20;83.50
39931;DHT22;26635;-35.248;149.138;2023-06-26T03:14:03;11.20;83.40
39931;DHT22;26635;-35.248;149.138;2023-06-26T03:16:34;11.20;83.40
39931;DHT22;26635;-35.248;149.138;2023-06-26T03:19:05;11.20;83.10
39931;DHT22;26635;-35.248;149.138;2023-06-26T03:21:36;11.30;83.70
39931;DHT22;26635;-35.248;149.138;2023-06-26T03:24:07;11.50;82.40
39931;DHT22;26635;-35.248;149.138;2023-06-26T03:26:37;11.40;82.30
39931;DHT22;26635;-35.248;149.138;2023-06-26T03:29:08;11.40;82.50
39931;DHT22;26635;-35.248;149.138;2023-06-26T03:31:38;11.50;82.40
39931;DHT22;26635;-35.248;149.138;2023-06-26T03:34:09;11.50;81.40
39931;DHT22;26635;-35.248;149.138;2023-06-26T03:36:39;11.50;81.10
39931;DHT22;26635;-35.248;149.138;2023-06-26T03:39:10;11.50;80.60
39931;DHT22;26635;-35.248;149.138;2023-06-26T03:41:41;11.60;79.60
39931;DHT22;26635;-35.248;149.138;2023-06-26T03:44:11;11.60;80.00
39931;DHT22;26635;-35.248;149.138;2023-06-26T03:46:43;11.70;79.80
39931;DHT22;26635;-35.248;149.138;2023-06-26T03:49:13;11.70;78.40
39931;DHT22;26635;-35.248;149.138;2023-06-26T03:51:44;11.80;78.20
39931;DHT22;26635;-35.248;149.138;2023-06-26T03:54:15;11.80;79.00
39931;DHT22;26635;-35.248;149.138;2023-06-26T03:56:46;11.70;77.50
39931;DHT22;26635;-35.248;149.138;2023-06-26T03:59:16;11.60;79.00
39931;DHT22;26635;-35.248;149.138;2023-06-26T04:01:46;11.60;78.30
39931;DHT22;26635;-35.248;149.138;2023-06-26T04:04:20;11.60;78.60
39931;DHT22;26635;-35.248;149.138;2023-06-26T04:06:50;11.60;78.60
39931;DHT22;26635;-35.248;149.138;2023-06-26T04:09:21;11.60;78.00
39931;DHT22;26635;-35.248;149.138;2023-06-26T04:11:51;11.50;79.30
39931;DHT22;26635;-35.248;149.138;2023-06-26T04:14:23;11.40;79.20
39931;DHT22;26635;-35.248;149.138;2023-06-26T04:16:55;11.40;79.50
39931;DHT22;26635;-35.248;149.138;2023-06-26T04:19:27;11.40;79.30
39931;DHT22;26635;-35.248;149.138;2023-06-26T04:21:58;11.40;78.90
39931;DHT22;26635;-35.248;149.138;2023-06-26T04:24:28;11.40;78.60
39931;DHT22;26635;-35.248;149.138;2023-06-26T04:26:59;11.40;79.50
39931;DHT22;26635;-35.248;149.138;2023-06-26T04:29:30;11.30;80.00
39931;DHT22;26635;-35.248;149.138;2023-06-26T04:32:00;11.30;79.70
39931;DHT22;26635;-35.248;149.138;2023-06-26T04:34:30;11.20;80.30
39931;DHT22;26635;-35.248;149.138;2023-06-26T04:37:05;11.20;80.50
39931;DHT22;26635;-35.248;149.138;2023-06-26T04:39:37;11.20;80.50
39931;DHT22;26635;-35.248;149.138;2023-06-26T04:42:08;11.20;79.70
39931;DHT22;26635;-35.248;149.138;2023-06-26T04:44:39;11.20;79.50
39931;DHT22;26635;-35.248;149.138;2023-06-26T04:47:10;11.20;79.80
39931;DHT22;26635;-35.248;149.138;2023-06-26T04:49:41;11.20;80.10
39931;DHT22;26635;-35.248;149.138;2023-06-26T04:52:15;11.20;79.70
39931;DHT22;26635;-35.248;149.138;2023-06-26T04:54:46;11.20;80.50
39931;DHT22;26635;-35.248;149.138;2023-06-26T04:57:17;11.20;80.30
39931;DHT22;26635;-35.248;149.138;2023-06-26T04:59:48;11.20;80.60
39931;DHT22;26635;-35.248;149.138;2023-06-26T05:02:18;11.20;81.20
39931;DHT22;26635;-35.248;149.138;2023-06-26T05:04:49;11.20;81.10
39931;DHT22;26635;-35.248;149.138;2023-06-26T05:07:19;11.10;81.50
39931;DHT22;26635;-35.248;149.138;2023-06-26T05:09:50;11.00;81.60
39931;DHT22;26635;-35.248;149.138;2023-06-26T05:12:21;11.00;82.30
39931;DHT22;26635;-35.248;149.138;2023-06-26T05:14:51;10.90;82.60
39931;DHT22;26635;-35.248;149.138;2023-06-26T05:17:21;10.80;82.90
39931;DHT22;26635;-35.248;149.138;2023-06-26T05:19:53;10.80;82.80
39931;DHT22;26635;-35.248;149.138;2023-06-26T05:22:24;10.70;83.20
39931;DHT22;26635;-35.248;149.138;2023-06-26T05:24:55;10.70;83.40
39931;DHT22;26635;-35.248;149.138;2023-06-26T05:27:30;10.70;83.60
39931;DHT22;26635;-35.248;149.138;2023-06-26T05:30:02;10.70;83.50
39931;DHT22;26635;-35.248;149.138;2023-06-26T05:32:35;10.70;84.20
39931;DHT22;26635;-35.248;149.138;2023-06-26T05:35:07;10.80;83.70
39931;DHT22;26635;-35.248;149.138;2023-06-26T05:37:39;10.80;83.40
39931;DHT22;26635;-35.248;149.138;2023-06-26T05:40:11;10.80;83.60
39931;DHT22;26635;-35.248;149.138;2023-06-26T05:42:42;10.80;83.20
39931;DHT22;26635;-35.248;149.138;2023-06-26T05:45:13;10.70;83.40
39931;DHT22;26635;-35.248;149.138;2023-06-26T05:47:45;10.70;83.40
39931;DHT22;26635;-35.248;149.138;2023-06-26T05:50:18;10.70;83.90
39931;DHT22;26635;-35.248;149.138;2023-06-26T05:52:50;10.60;84.20
39931;DHT22;26635;-35.248;149.138;2023-06-26T05:55:21;10.60;84.10
39931;DHT22;26635;-35.248;149.138;2023-06-26T05:57:53;10.50;84.30
39931;DHT22;26635;-35.248;149.138;2023-06-26T06:00:24;10.50;84.90
39931;DHT22;26635;-35.248;149.138;2023-06-26T06:02:56;10.50;84.60
39931;DHT22;26635;-35.248;149.138;2023-06-26T06:05:27;10.50;84.90
39931;DHT22;26635;-35.248;149.138;2023-06-26T06:07:58;10.40;84.80
39931;DHT22;26635;-35.248;149.138;2023-06-26T06:10:28;10.40;85.00
39931;DHT22;26635;-35.248;149.138;2023-06-26T06:12:58;10.30;85.30
39931;DHT22;26635;-35.248;149.138;2023-06-26T06:15:29;10.30;85.80
39931;DHT22;26635;-35.248;149.138;2023-06-26T06:18:00;10.20;86.10
39931;DHT22;26635;-35.248;149.138;2023-06-26T06:20:30;10.10;86.40
39931;DHT22;26635;-35.248;149.138;2023-06-26T06:23:00;10.00;86.60
39931;DHT22;26635;-35.248;149.138;2023-06-26T06:25:31;10.00;87.00
39931;DHT22;26635;-35.248;149.138;2023-06-26T06:28:02;9.90;87.30
39931;DHT22;26635;-35.248;149.138;2023-06-26T06:30:32;9.90;87.50
39931;DHT22;26635;-35.248;149.138;2023-06-26T06:33:13;9.80;87.40
39931;DHT22;26635;-35.248;149.138;2023-06-26T06:35:43;9.80;87.70
39931;DHT22;26635;-35.248;149.138;2023-06-26T06:38:14;9.70;87.60
39931;DHT22;26635;-35.248;149.138;2023-06-26T06:40:54;9.70;87.30
39931;DHT22;26635;-35.248;149.138;2023-06-26T06:43:25;9.60;86.60
39931;DHT22;26635;-35.248;149.138;2023-06-26T06:45:55;9.60;85.90
39931;DHT22;26635;-35.248;149.138;2023-06-26T06:48:26;9.50;85.90
39931;DHT22;26635;-35.248;149.138;2023-06-26T06:50:56;9.50;85.10
39931;DHT22;26635;-35.248;149.138;2023-06-26T06:53:27;9.40;85.10
39931;DHT22;26635;-35.248;149.138;2023-06-26T06:55:57;9.40;83.60
39931;DHT22;26635;-35.248;149.138;2023-06-26T06:58:31;9.40;83.30
39931;DHT22;26635;-35.248;149.138;2023-06-26T07:01:03;9.40;82.70
39931;DHT22;26635;-35.248;149.138;2023-06-26T07:03:33;9.30;82.00
39931;DHT22;26635;-35.248;149.138;2023-06-26T07:06:04;9.30;82.00
39931;DHT22;26635;-35.248;149.138;2023-06-26T07:08:35;9.30;81.20
39931;DHT22;26635;-35.248;149.138;2023-06-26T07:11:06;9.20;81.50
39931;DHT22;26635;-35.248;149.138;2023-06-26T07:13:37;9.30;81.10
39931;DHT22;26635;-35.248;149.138;2023-06-26T07:16:09;9.20;81.70
39931;DHT22;26635;-35.248;149.138;2023-06-26T07:18:41;9.20;81.90
39931;DHT22;26635;-35.248;149.138;2023-06-26T07:21:13;9.10;81.70
39931;DHT22;26635;-35.248;149.138;2023-06-26T07:23:44;9.10;82.50
39931;DHT22;26635;-35.248;149.138;2023-06-26T07:26:15;9.00;83.10
39931;DHT22;26635;-35.248;149.138;2023-06-26T07:28:56;9.00;82.60
39931;DHT22;26635;-35.248;149.138;2023-06-26T07:31:26;9.00;82.90
39931;DHT22;26635;-35.248;149.138;2023-06-26T07:33:57;9.00;83.20
39931;DHT22;26635;-35.248;149.138;2023-06-26T07:36:28;9.00;82.90
39931;DHT22;26635;-35.248;149.138;2023-06-26T07:38:58;9.00;83.60
39931;DHT22;26635;-35.248;149.138;2023-06-26T07:41:29;9.00;83.50
39931;DHT22;26635;-35.248;149.138;2023-06-26T07:44:01;9.00;83.90
39931;DHT22;26635;-35.248;149.138;2023-06-26T07:46:31;8.90;84.00
39931;DHT22;26635;-35.248;149.138;2023-06-26T07:49:01;8.90;84.00
39931;DHT22;26635;-35.248;149.138;2023-06-26T07:51:32;8.90;84.80
39931;DHT22;26635;-35.248;149.138;2023-06-26T07:54:03;8.90;84.90
39931;DHT22;26635;-35.248;149.138;2023-06-26T07:56:55;8.90;85.40
39931;DHT22;26635;-35.248;149.138;2023-06-26T07:59:28;8.80;85.20
39931;DHT22;26635;-35.248;149.138;2023-06-26T08:01:59;8.80;84.80
39931;DHT22;26635;-35.248;149.138;2023-06-26T08:04:31;8.80;85.30
39931;DHT22;26635;-35.248;149.138;2023-06-26T08:07:03;8.80;84.60
39931;DHT22;26635;-35.248;149.138;2023-06-26T08:09:34;8.80;85.20
39931;DHT22;26635;-35.248;149.138;2023-06-26T08:12:05;8.70;85.60
39931;DHT22;26635;-35.248;149.138;2023-06-26T08:14:38;8.70;86.50
39931;DHT22;26635;-35.248;149.138;2023-06-26T08:17:09;8.60;86.90
39931;DHT22;26635;-35.248;149.138;2023-06-26T08:19:39;8.50;86.90
39931;DHT22;26635;-35.248;149.138;2023-06-26T08:22:10;8.40;86.90
39931;DHT22;26635;-35.248;149.138;2023-06-26T08:24:40;8.40;87.40
39931;DHT22;26635;-35.248;149.138;2023-06-26T08:27:10;8.40;87.70
39931;DHT22;26635;-35.248;149.138;2023-06-26T08:29:41;8.40;87.50
39931;DHT22;26635;-35.248;149.138;2023-06-26T08:32:11;8.40;87.10
39931;DHT22;26635;-35.248;149.138;2023-06-26T08:34:42;8.40;87.10
39931;DHT22;26635;-35.248;149.138;2023-06-26T08:37:16;8.50;86.40
39931;DHT22;26635;-35.248;149.138;2023-06-26T08:39:48;8.50;86.40
39931;DHT22;26635;-35.248;149.138;2023-06-26T08:42:20;8.50;86.20
39931;DHT22;26635;-35.248;149.138;2023-06-26T08:44:51;8.50;85.00
39931;DHT22;26635;-35.248;149.138;2023-06-26T08:47:30;8.60;84.60
39931;DHT22;26635;-35.248;149.138;2023-06-26T08:50:14;8.60;84.30
39931;DHT22;26635;-35.248;149.138;2023-06-26T08:52:56;8.60;82.30
39931;DHT22;26635;-35.248;149.138;2023-06-26T08:55:33;8.60;81.40
39931;DHT22;26635;-35.248;149.138;2023-06-26T08:58:06;8.70;80.90
39931;DHT22;26635;-35.248;149.138;2023-06-26T09:00:37;8.70;79.60
39931;DHT22;26635;-35.248;149.138;2023-06-26T09:03:09;8.70;79.10
39931;DHT22;26635;-35.248;149.138;2023-06-26T09:05:40;8.80;79.00
39931;DHT22;26635;-35.248;149.138;2023-06-26T09:08:11;8.90;78.20
39931;DHT22;26635;-35.248;149.138;2023-06-26T09:10:46;8.90;77.60
39931;DHT22;26635;-35.248;149.138;2023-06-26T09:13:23;9.00;78.00
39931;DHT22;26635;-35.248;149.138;2023-06-26T09:15:58;9.00;78.70
39931;DHT22;26635;-35.248;149.138;2023-06-26T09:18:29;9.00;79.10
39931;DHT22;26635;-35.248;149.138;2023-06-26T09:21:11;8.90;81.30
39931;DHT22;26635;-35.248;149.138;2023-06-26T09:23:43;8.90;82.60
39931;DHT22;26635;-35.248;149.138;2023-06-26T09:26:15;8.70;83.20
39931;DHT22;26635;-35.248;149.138;2023-06-26T09:28:49;8.60;84.10
39931;DHT22;26635;-35.248;149.138;2023-06-26T09:31:20;8.60;84.80
39931;DHT22;26635;-35.248;149.138;2023-06-26T09:34:07;8.50;86.10
39931;DHT22;26635;-35.248;149.138;2023-06-26T09:36:38;8.40;86.50
39931;DHT22;26635;-35.248;149.138;2023-06-26T09:39:11;8.50;86.70
39931;DHT22;26635;-35.248;149.138;2023-06-26T09:41:43;8.50;87.20
39931;DHT22;26635;-35.248;149.138;2023-06-26T09:44:15;8.50;87.10
39931;DHT22;26635;-35.248;149.138;2023-06-26T09:46:46;8.60;86.60
39931;DHT22;26635;-35.248;149.138;2023-06-26T09:49:16;8.70;86.90
39931;DHT22;26635;-35.248;149.138;2023-06-26T09:51:48;8.70;86.90
39931;DHT22;26635;-35.248;149.138;2023-06-26T09:54:22;8.70;87.00
39931;DHT22;26635;-35.248;149.138;2023-06-26T09:56:56;8.80;87.10
39931;DHT22;26635;-35.248;149.138;2023-06-26T09:59:36;8.80;87.20
39931;DHT22;26635;-35.248;149.138;2023-06-26T10:02:08;8.80;86.50
39931;DHT22;26635;-35.248;149.138;2023-06-26T10:04:39;8.80;86.00
39931;DHT22;26635;-35.248;149.138;2023-06-26T10:07:11;8.80;86.10
39931;DHT22;26635;-35.248;149.138;2023-06-26T10:09:45;8.90;86.50
39931;DHT22;26635;-35.248;149.138;2023-06-26T10:12:30;8.90;86.10
39931;DHT22;26635;-35.248;149.138;2023-06-26T10:15:02;8.90;85.20
39931;DHT22;26635;-35.248;149.138;2023-06-26T10:17:37;8.90;84.90
39931;DHT22;26635;-35.248;149.138;2023-06-26T10:20:09;9.00;84.70
39931;DHT22;26635;-35.248;149.138;2023-06-26T10:22:47;8.90;83.90
39931;DHT22;26635;-35.248;149.138;2023-06-26T10:25:19;8.90;84.20
39931;DHT22;26635;-35.248;149.138;2023-06-26T10:27:54;8.90;84.20
39931;DHT22;26635;-35.248;149.138;2023-06-26T10:30:31;8.80;84.50
39931;DHT22;26635;-35.248;149.138;2023-06-26T10:33:04;8.80;84.50
39931;DHT22;26635;-35.248;149.138;2023-06-26T10:35:43;8.70;85.00
39931;DHT22;26635;-35.248;149.138;2023-06-26T10:38:14;8.60;84.70
39931;DHT22;26635;-35.248;149.138;2023-06-26T10:40:50;8.60;85.00
39931;DHT22;26635;-35.248;149.138;2023-06-26T10:43:29;8.50;85.30
39931;DHT22;26635;-35.248;149.138;2023-06-26T10:46:00;8.50;84.90
39931;DHT22;26635;-35.248;149.138;2023-06-26T10:48:31;8.40;84.70
39931;DHT22;26635;-35.248;149.138;2023-06-26T10:51:14;8.40;83.60
39931;DHT22;26635;-35.248;149.138;2023-06-26T10:53:53;8.30;83.00
39931;DHT22;26635;-35.248;149.138;2023-06-26T10:59:22;8.10;83.50
39931;DHT22;26635;-35.248;149.138;2023-06-26T11:04:47;8.10;84.70
39931;DHT22;26635;-35.248;149.138;2023-06-26T11:07:23;8.00;85.80
39931;DHT22;26635;-35.248;149.138;2023-06-26T11:09:58;7.90;84.60
39931;DHT22;26635;-35.248;149.138;2023-06-26T11:12:41;7.80;85.70
39931;DHT22;26635;-35.248;149.138;2023-06-26T11:15:14;7.80;85.20
39931;DHT22;26635;-35.248;149.138;2023-06-26T11:17:45;7.70;86.20
39931;DHT22;26635;-35.248;149.138;2023-06-26T11:20:17;7.60;87.10
39931;DHT22;26635;-35.248;149.138;2023-06-26T11:22:49;7.70;86.90
39931;DHT22;26635;-35.248;149.138;2023-06-26T11:25:23;7.70;86.80
39931;DHT22;26635;-35.248;149.138;2023-06-26T11:27:54;7.70;87.40
39931;DHT22;26635;-35.248;149.138;2023-06-26T11:30:25;7.70;86.30
39931;DHT22;26635;-35.248;149.138;2023-06-26T11:33:09;7.80;86.30
39931;DHT22;26635;-35.248;149.138;2023-06-26T11:35:40;7.80;86.60
39931;DHT22;26635;-35.248;149.138;2023-06-26T11:38:11;7.70;85.30
39931;DHT22;26635;-35.248;149.138;2023-06-26T11:40:41;7.70;86.50
39931;DHT22;26635;-35.248;149.138;2023-06-26T11:43:12;7.70;87.50
39931;DHT22;26635;-35.248;149.138;2023-06-26T11:45:43;7.70;87.50
39931;DHT22;26635;-35.248;149.138;2023-06-26T11:48:14;7.70;87.10
39931;DHT22;26635;-35.248;149.138;2023-06-26T11:50:45;7.70;87.10
39931;DHT22;26635;-35.248;149.138;2023-06-26T11:53:15;7.70;87.10
39931;DHT22;26635;-35.248;149.138;2023-06-26T11:55:46;7.60;87.00
39931;DHT22;26635;-35.248;149.138;2023-06-26T11:58:16;7.60;87.80
39931;DHT22;26635;-35.248;149.138;2023-06-26T12:00:48;7.50;88.40
39931;DHT22;26635;-35.248;149.138;2023-06-26T12:03:18;7.50;88.70
39931;DHT22;26635;-35.248;149.138;2023-06-26T12:05:49;7.60;89.10
39931;DHT22;26635;-35.248;149.138;2023-06-26T12:08:28;7.60;89.90
39931;DHT22;26635;-35.248;149.138;2023-06-26T12:10:58;7.70;88.70
39931;DHT22;26635;-35.248;149.138;2023-06-26T12:13:29;7.90;87.90
39931;DHT22;26635;-35.248;149.138;2023-06-26T12:15:59;7.90;88.90
39931;DHT22;26635;-35.248;149.138;2023-06-26T12:18:36;7.90;88.20
39931;DHT22;26635;-35.248;149.138;2023-06-26T12:21:07;8.00;88.80
39931;DHT22;26635;-35.248;149.138;2023-06-26T12:23:40;8.00;88.60
39931;DHT22;26635;-35.248;149.138;2023-06-26T12:26:21;8.00;88.20
39931;DHT22;26635;-35.248;149.138;2023-06-26T12:28:51;8.00;89.00
39931;DHT22;26635;-35.248;149.138;2023-06-26T12:31:22;8.00;88.60
39931;DHT22;26635;-35.248;149.138;2023-06-26T12:33:53;8.00;88.60
39931;DHT22;26635;-35.248;149.138;2023-06-26T12:36:27;8.00;88.40
39931;DHT22;26635;-35.248;149.138;2023-06-26T12:39:00;8.00;89.10
39931;DHT22;26635;-35.248;149.138;2023-06-26T12:41:31;8.00;89.20
39931;DHT22;26635;-35.248;149.138;2023-06-26T12:44:01;8.10;88.60
39931;DHT22;26635;-35.248;149.138;2023-06-26T12:46:35;8.20;88.00
39931;DHT22;26635;-35.248;149.138;2023-06-26T12:49:06;8.20;86.20
39931;DHT22;26635;-35.248;149.138;2023-06-26T12:51:53;8.30;86.50
39931;DHT22;26635;-35.248;149.138;2023-06-26T12:54:23;8.30;86.80
39931;DHT22;26635;-35.248;149.138;2023-06-26T12:56:54;8.30;90.00
39931;DHT22;26635;-35.248;149.138;2023-06-26T12:59:25;8.30;88.10
39931;DHT22;26635;-35.248;149.138;2023-06-26T13:01:57;8.30;88.70
39931;DHT22;26635;-35.248;149.138;2023-06-26T13:04:28;8.40;88.00
39931;DHT22;26635;-35.248;149.138;2023-06-26T13:06:58;8.40;87.80
39931;DHT22;26635;-35.248;149.138;2023-06-26T13:09:32;8.40;87.90
39931;DHT22;26635;-35.248;149.138;2023-06-26T13:12:05;8.40;88.40
39931;DHT22;26635;-35.248;149.138;2023-06-26T13:14:36;8.40;88.50
39931;DHT22;26635;-35.248;149.138;2023-06-26T13:17:08;8.40;89.00
39931;DHT22;26635;-35.248;149.138;2023-06-26T13:19:38;8.40;88.50
39931;DHT22;26635;-35.248;149.138;2023-06-26T13:22:09;8.40;88.70
39931;DHT22;26635;-35.248;149.138;2023-06-26T13:24:39;8.40;89.10
39931;DHT22;26635;-35.248;149.138;2023-06-26T13:27:10;8.40;89.00
39931;DHT22;26635;-35.248;149.138;2023-06-26T13:29:41;8.40;89.20
39931;DHT22;26635;-35.248;149.138;2023-06-26T13:32:12;8.40;89.10
39931;DHT22;26635;-35.248;149.138;2023-06-26T13:34:43;8.40;88.80
39931;DHT22;26635;-35.248;149.138;2023-06-26T13:37:13;8.40;89.00
39931;DHT22;26635;-35.248;149.138;2023-06-26T13:39:44;8.40;89.00
39931;DHT22;26635;-35.248;149.138;2023-06-26T13:42:19;8.50;88.90
39931;DHT22;26635;-35.248;149.138;2023-06-26T13:44:51;8.50;88.80
39931;DHT22;26635;-35.248;149.138;2023-06-26T13:47:31;8.50;89.40
39931;DHT22;26635;-35.248;149.138;2023-06-26T13:50:05;8.60;89.20
39931;DHT22;26635;-35.248;149.138;2023-06-26T13:52:36;8.60;88.80
39931;DHT22;26635;-35.248;149.138;2023-06-26T13:55:06;8.60;88.70
39931;DHT22;26635;-35.248;149.138;2023-06-26T13:57:37;8.60;88.90
39931;DHT22;26635;-35.248;149.138;2023-06-26T14:00:11;8.60;88.90
39931;DHT22;26635;-35.248;149.138;2023-06-26T14:02:42;8.60;88.80
39931;DHT22;26635;-35.248;149.138;2023-06-26T14:05:13;8.50;89.00
39931;DHT22;26635;-35.248;149.138;2023-06-26T14:07:44;8.50;88.90
39931;DHT22;26635;-35.248;149.138;2023-06-26T14:10:15;8.50;89.30
39931;DHT22;26635;-35.248;149.138;2023-06-26T14:12:46;8.40;89.30
39931;DHT22;26635;-35.248;149.138;2023-06-26T14:15:16;8.40;89.30
39931;DHT22;26635;-35.248;149.138;2023-06-26T14:17:47;8.30;89.40
39931;DHT22;26635;-35.248;149.138;2023-06-26T14:20:19;8.30;89.60
39931;DHT22;26635;-35.248;149.138;2023-06-26T14:22:52;8.20;89.60
39931;DHT22;26635;-35.248;149.138;2023-06-26T14:25:22;8.10;89.30
39931;DHT22;26635;-35.248;149.138;2023-06-26T14:27:53;8.10;90.00
39931;DHT22;26635;-35.248;149.138;2023-06-26T14:30:23;8.00;89.90
39931;DHT22;26635;-35.248;149.138;2023-06-26T14:32:54;7.90;89.70
39931;DHT22;26635;-35.248;149.138;2023-06-26T14:35:26;7.90;89.70
39931;DHT22;26635;-35.248;149.138;2023-06-26T14:37:57;7.80;90.00
39931;DHT22;26635;-35.248;149.138;2023-06-26T14:40:28;7.70;90.40
39931;DHT22;26635;-35.248;149.138;2023-06-26T14:42:59;7.60;90.70
39931;DHT22;26635;-35.248;149.138;2023-06-26T14:45:30;7.60;90.80
39931;DHT22;26635;-35.248;149.138;2023-06-26T14:48:01;7.60;90.60
39931;DHT22;26635;-35.248;149.138;2023-06-26T14:50:31;7.60;90.50
39931;DHT22;26635;-35.248;149.138;2023-06-26T14:53:02;7.60;90.50
39931;DHT22;26635;-35.248;149.138;2023-06-26T14:55:33;7.50;90.90
39931;DHT22;26635;-35.248;149.138;2023-06-26T14:58:03;7.50;90.30
39931;DHT22;26635;-35.248;149.138;2023-06-26T15:00:34;7.40;90.30
39931;DHT22;26635;-35.248;149.138;2023-06-26T15:03:05;7.30;90.30
39931;DHT22;26635;-35.248;149.138;2023-06-26T15:05:35;7.30;90.80
39931;DHT22;26635;-35.248;149.138;2023-06-26T15:08:06;7.20;91.30
39931;DHT22;26635;-35.248;149.138;2023-06-26T15:10:38;7.20;91.30
39931;DHT22;26635;-35.248;149.138;2023-06-26T15:13:09;7.20;91.30
39931;DHT22;26635;-35.248;149.138;2023-06-26T15:15:40;7.10;91.70
39931;DHT22;26635;-35.248;149.138;2023-06-26T15:18:10;7.10;91.70
39931;DHT22;26635;-35.248;149.138;2023-06-26T15:20:41;7.20;91.80
39931;DHT22;26635;-35.248;149.138;2023-06-26T15:23:12;7.20;92.00
39931;DHT22;26635;-35.248;149.138;2023-06-26T15:25:44;7.20;91.80
39931;DHT22;26635;-35.248;149.138;2023-06-26T15:28:15;7.20;91.70
39931;DHT22;26635;-35.248;149.138;2023-06-26T15:30:45;7.20;91.90
39931;DHT22;26635;-35.248;149.138;2023-06-26T15:33:17;7.20;92.00
39931;DHT22;26635;-35.248;149.138;2023-06-26T15:35:47;7.30;91.90
39931;DHT22;26635;-35.248;149.138;2023-06-26T15:38:18;7.40;92.10
39931;DHT22;26635;-35.248;149.138;2023-06-26T15:40:56;7.40;91.90
39931;DHT22;26635;-35.248;149.138;2023-06-26T15:43:26;7.50;91.60
39931;DHT22;26635;-35.248;149.138;2023-06-26T15:45:57;7.50;91.70
39931;DHT22;26635;-35.248;149.138;2023-06-26T15:48:28;7.50;91.40